Time;durP1;ratioP1;P1;durP2;ratioP2;P2;SDS_P1;SDS_P2;PMS_P1;PMS_P2;Temp;Humidity;BMP_temperature;BMP_pressure;BME280_temperature;BME280_humidity;BME280_pressure;Samples;Min_cycle;Max_cycle;Signal;HPM_P1;HPM_P2
2021/12/10 00:00:49;;;;;;;25.15;15.45;;;6.10;99.90;;;;;;5113819;28;20120;-60
2021/12/10 00:03:24;;;;;;;20.13;13.38;;;6.20;99.90;;;;;;5113642;28;20480;-57
2021/12/10 00:06:04;;;;;;;18.13;12.23;;;6.20;99.90;;;;;;5113545;28;20016;-56
2021/12/10 00:08:33;;;;;;;20.08;12.43;;;6.20;99.90;;;;;;5114019;28;20030;-55
2021/12/10 00:11:02;;;;;;;25.80;14.73;;;6.20;99.90;;;;;;5117517;28;20457;-57
2021/12/10 00:13:28;;;;;;;17.67;11.32;;;6.30;99.90;;;;;;5117825;28;20016;-55
2021/12/10 00:15:55;;;;;;;16.38;10.93;;;6.20;99.90;;;;;;5118079;28;20027;-55
2021/12/10 00:18:30;;;;;;;16.30;11.00;;;6.30;99.90;;;;;;5117590;28;20066;-56
2021/12/10 00:20:58;;;;;;;16.52;10.18;;;6.40;99.90;;;;;;5117812;28;20039;-58
2021/12/10 00:23:28;;;;;;;25.83;15.40;;;6.50;99.90;;;;;;5117471;28;20035;-54
2021/12/10 00:25:54;;;;;;;21.38;14.55;;;6.50;99.90;;;;;;5117484;28;20074;-60
2021/12/10 00:28:28;;;;;;;21.60;12.93;;;6.50;99.90;;;;;;5117466;28;20485;-53
2021/12/10 00:31:19;;;;;;;16.58;11.23;;;6.40;99.90;;;;;;5117341;28;20019;-57
2021/12/10 00:33:55;;;;;;;21.00;13.20;;;6.40;99.90;;;;;;5117371;28;20466;-58
2021/12/10 00:36:22;;;;;;;16.83;11.00;;;6.40;99.90;;;;;;5116870;28;20523;-58
2021/12/10 00:38:48;;;;;;;18.50;12.82;;;6.50;99.90;;;;;;5117213;28;20016;-56
2021/12/10 00:41:14;;;;;;;19.85;12.93;;;6.50;99.90;;;;;;5117086;28;20020;-59
2021/12/10 00:43:40;;;;;;;20.23;12.90;;;6.50;99.90;;;;;;5117341;28;20024;-57
2021/12/10 00:46:06;;;;;;;22.35;14.20;;;6.40;99.90;;;;;;5117368;28;20034;-59
2021/12/10 00:48:33;;;;;;;23.13;14.80;;;6.30;99.90;;;;;;5116980;28;20037;-58
2021/12/10 00:51:00;;;;;;;18.95;12.48;;;6.20;99.90;;;;;;5116918;28;20028;-58
2021/12/10 00:53:25;;;;;;;17.25;11.70;;;6.20;99.90;;;;;;5117443;28;20059;-58
2021/12/10 00:55:52;;;;;;;16.92;11.00;;;6.20;99.90;;;;;;5116760;28;20051;-55
2021/12/10 00:58:18;;;;;;;16.60;10.35;;;6.30;99.90;;;;;;5116858;28;20027;-55
2021/12/10 01:00:50;;;;;;;22.73;13.50;;;6.40;99.90;;;;;;5116726;28;20135;-56
2021/12/10 01:03:22;;;;;;;22.70;13.95;;;6.50;99.90;;;;;;5116607;28;20020;-57
2021/12/10 01:05:56;;;;;;;19.90;12.48;;;6.40;99.90;;;;;;5116885;28;20069;-59
2021/12/10 01:08:23;;;;;;;21.58;12.65;;;6.30;99.90;;;;;;5116763;28;20020;-56
2021/12/10 01:10:58;;;;;;;22.08;13.88;;;6.30;99.90;;;;;;5116466;28;20023;-56
2021/12/10 01:13:30;;;;;;;16.67;11.50;;;6.30;99.90;;;;;;5116446;28;20035;-57
2021/12/10 01:24:07;;;;;;;22.95;14.15;;;6.20;99.90;;;;;;5116524;28;20028;-52
2021/12/10 01:29:17;;;;;;;20.35;13.43;;;6.10;99.90;;;;;;5116253;28;20390;-57
2021/12/10 01:31:43;;;;;;;31.38;17.70;;;6.20;99.90;;;;;;5116237;28;20484;-56
2021/12/10 01:34:09;;;;;;;22.48;14.30;;;6.20;99.90;;;;;;5116127;28;20031;-56
2021/12/10 01:36:36;;;;;;;23.65;13.63;;;6.20;99.90;;;;;;5115893;28;20406;-56
2021/12/10 01:39:06;;;;;;;26.52;16.55;;;6.20;99.90;;;;;;5115900;28;20047;-56
2021/12/10 01:41:36;;;;;;;23.67;15.35;;;6.20;99.90;;;;;;5115975;28;20020;-60
2021/12/10 01:44:14;;;;;;;31.90;18.75;;;6.20;99.90;;;;;;5115945;28;20022;-56
2021/12/10 01:46:40;;;;;;;45.65;27.17;;;6.20;99.90;;;;;;5115924;28;20485;-56
2021/12/10 01:49:09;;;;;;;38.72;22.40;;;6.10;99.90;;;;;;5115700;28;20104;-58
2021/12/10 01:51:38;;;;;;;29.15;19.55;;;6.10;99.90;;;;;;5116056;28;20024;-56
2021/12/10 01:54:20;;;;;;;27.42;17.30;;;6.10;99.90;;;;;;5115894;28;20383;-56
2021/12/10 01:56:47;;;;;;;29.70;18.75;;;6.10;99.90;;;;;;5115795;28;20504;-57
2021/12/10 01:59:15;;;;;;;32.15;20.20;;;5.90;99.90;;;;;;5115571;28;20024;-58
2021/12/10 02:01:45;;;;;;;24.55;15.45;;;5.90;99.90;;;;;;5115583;28;20473;-57
2021/12/10 02:04:13;;;;;;;26.30;16.23;;;5.90;99.90;;;;;;5115817;28;20038;-57
2021/12/10 02:06:41;;;;;;;25.77;15.23;;;6.00;99.90;;;;;;5115616;28;20081;-57
2021/12/10 02:09:08;;;;;;;24.65;15.35;;;6.00;99.90;;;;;;5115493;27;20023;-56
2021/12/10 02:11:34;;;;;;;30.02;16.90;;;6.10;99.90;;;;;;5115296;28;20018;-59
2021/12/10 02:14:00;;;;;;;26.08;16.35;;;6.10;99.90;;;;;;5115687;28;20134;-53
2021/12/10 02:16:26;;;;;;;26.38;15.93;;;6.20;99.90;;;;;;5115191;28;20027;-57
2021/12/10 02:18:52;;;;;;;23.98;15.00;;;6.10;99.90;;;;;;5115575;28;20528;-55
2021/12/10 02:21:21;;;;;;;24.83;15.57;;;6.10;99.90;;;;;;5113926;28;20496;-59
2021/12/10 02:23:56;;;;;;;24.65;14.60;;;6.10;99.90;;;;;;5115115;28;20020;-57
2021/12/10 02:26:23;;;;;;;21.20;13.60;;;6.00;99.90;;;;;;5115459;28;20028;-58
2021/12/10 02:28:49;;;;;;;21.73;13.68;;;6.00;99.90;;;;;;5115181;28;20024;-55
2021/12/10 02:31:15;;;;;;;20.35;13.50;;;6.00;99.90;;;;;;5114952;28;20417;-55
2021/12/10 02:33:42;;;;;;;21.52;13.30;;;6.00;99.90;;;;;;5115011;28;20442;-58
2021/12/10 02:36:11;;;;;;;27.25;17.70;;;6.00;99.90;;;;;;5114545;28;20051;-59
2021/12/10 02:38:43;;;;;;;29.38;16.80;;;6.00;99.90;;;;;;5114813;28;20055;-57
2021/12/10 02:41:09;;;;;;;31.35;17.92;;;6.00;99.90;;;;;;5115124;28;20030;-58
2021/12/10 02:43:37;;;;;;;33.95;19.15;;;6.10;99.90;;;;;;5115001;28;20030;-57
2021/12/10 02:46:03;;;;;;;31.05;18.75;;;6.10;99.90;;;;;;5115026;28;20031;-52
2021/12/10 02:48:29;;;;;;;38.85;23.35;;;6.00;99.90;;;;;;5115008;28;20020;-58
2021/12/10 02:50:57;;;;;;;35.25;21.48;;;6.00;99.90;;;;;;5114495;28;20020;-56
2021/12/10 02:53:24;;;;;;;28.40;18.40;;;6.00;99.90;;;;;;5114558;28;20043;-59
2021/12/10 02:55:50;;;;;;;32.00;18.58;;;6.00;99.90;;;;;;5114833;28;20032;-57
2021/12/10 02:58:16;;;;;;;29.20;17.95;;;6.00;99.90;;;;;;5114523;28;20024;-55
2021/12/10 03:00:50;;;;;;;29.63;17.38;;;6.10;99.90;;;;;;5114380;28;20523;-59
2021/12/10 10:01:00;;;;;;;33.88;18.17;;;5.40;99.90;;;;;;5066166;28;20478;-55
2021/12/10 10:03:30;;;;;;;37.83;20.20;;;5.50;99.90;;;;;;5049166;28;20029;-56
2021/12/10 10:05:57;;;;;;;33.90;18.73;;;5.80;99.90;;;;;;5048680;28;20033;-57
2021/12/10 10:08:26;;;;;;;35.90;20.77;;;6.30;99.90;;;;;;5046603;28;20033;-54
2021/12/10 10:10:56;;;;;;;37.58;22.60;;;6.70;99.90;;;;;;5042486;28;20028;-57
2021/12/10 10:13:27;;;;;;;38.88;21.13;;;7.00;99.90;;;;;;5045907;28;20060;-58
2021/12/10 10:15:56;;;;;;;33.22;20.48;;;7.20;99.90;;;;;;5045646;28;20048;-57
2021/12/10 10:18:23;;;;;;;46.47;25.85;;;7.30;99.90;;;;;;5046024;28;20029;-56
2021/12/10 10:20:56;;;;;;;53.15;28.85;;;7.20;99.90;;;;;;5046978;28;20028;-56
2021/12/10 10:23:23;;;;;;;38.03;22.02;;;7.10;99.90;;;;;;5047557;28;20033;-58
2021/12/10 10:25:53;;;;;;;35.47;19.85;;;7.10;99.90;;;;;;5049328;28;20079;-58
2021/12/10 10:28:20;;;;;;;34.70;19.98;;;7.40;99.90;;;;;;5046512;28;20494;-58
2021/12/10 10:30:56;;;;;;;30.10;18.40;;;7.50;99.90;;;;;;5047632;28;20029;-57
2021/12/10 10:33:23;;;;;;;31.00;17.10;;;7.60;99.90;;;;;;5047113;28;20032;-58
2021/12/10 10:35:57;;;;;;;26.95;16.13;;;7.80;99.90;;;;;;5043807;28;20456;-58
2021/12/10 10:38:24;;;;;;;28.05;16.98;;;7.80;99.90;;;;;;5042334;28;20025;-57
2021/12/10 10:40:56;;;;;;;30.00;18.30;;;7.80;99.90;;;;;;5033696;28;20094;-55
2021/12/10 10:43:25;;;;;;;35.97;20.70;;;7.90;99.90;;;;;;5047675;28;20030;-54
2021/12/10 10:45:52;;;;;;;44.28;24.90;;;7.90;99.90;;;;;;5045177;28;20610;-56
2021/12/10 10:48:20;;;;;;;61.08;33.33;;;8.00;99.90;;;;;;5043271;28;20029;-58
2021/12/10 10:50:52;;;;;;;47.05;27.80;;;7.70;99.90;;;;;;5040171;28;20036;-58
2021/12/10 10:53:21;;;;;;;48.15;26.60;;;7.40;99.90;;;;;;5039305;28;20029;-57
2021/12/10 10:55:52;;;;;;;37.33;21.15;;;7.50;99.90;;;;;;5043258;28;20025;-52
2021/12/10 10:58:20;;;;;;;33.95;19.75;;;7.70;99.90;;;;;;5036019;28;20042;-56
2021/12/10 11:00:58;;;;;;;29.98;18.73;;;7.70;99.90;;;;;;5046992;28;20088;-54
2021/12/10 11:03:37;;;;;;;35.65;20.17;;;7.80;99.90;;;;;;5046664;28;20025;-55
2021/12/10 11:06:08;;;;;;;34.80;18.83;;;7.80;99.90;;;;;;5046184;28;20025;-54
2021/12/10 11:08:38;;;;;;;34.00;20.20;;;7.80;99.90;;;;;;5046837;28;20466;-54
2021/12/10 11:11:21;;;;;;;29.80;17.73;;;7.70;99.90;;;;;;5040210;28;20032;-55
2021/12/10 11:14:10;;;;;;;36.05;21.50;;;7.70;99.90;;;;;;5034261;28;20033;-54
2021/12/10 11:16:40;;;;;;;32.60;19.02;;;7.70;99.90;;;;;;5031719;28;20026;-55
2021/12/10 11:19:14;;;;;;;28.60;18.30;;;7.90;99.90;;;;;;5032424;28;20030;-54
2021/12/10 11:21:47;;;;;;;37.60;20.65;;;8.10;99.90;;;;;;5035615;28;20503;-55
2021/12/10 11:24:24;;;;;;;41.22;24.80;;;8.20;99.90;;;;;;5035578;28;20036;-56
2021/12/10 11:26:56;;;;;;;30.20;18.83;;;8.10;99.90;;;;;;5033620;28;20030;-56
2021/12/10 11:29:52;;;;;;;32.22;19.42;;;7.90;99.90;;;;;;5013977;28;20026;-58
2021/12/10 11:32:31;;;;;;;32.90;20.35;;;8.00;99.90;;;;;;5011266;28;20034;-58
2021/12/10 11:35:03;;;;;;;34.58;20.77;;;8.10;99.90;;;;;;5012666;28;20105;-57
2021/12/10 11:37:46;;;;;;;30.50;18.52;;;8.20;99.90;;;;;;5014575;28;20380;-56
2021/12/10 11:40:41;;;;;;;25.90;17.20;;;8.20;99.90;;;;;;5030078;28;20314;-55
2021/12/10 11:43:18;;;;;;;;;;;8.40;99.90;;;;;;5039092;28;20021;-56
2021/12/10 11:48:41;;;;;;;31.38;20.55;;;8.60;99.90;;;;;;5020671;28;20026;-53
2021/12/10 11:51:14;;;;;;;35.03;21.25;;;8.60;99.90;;;;;;5014179;28;20018;-62
2021/12/10 11:53:46;;;;;;;30.10;19.50;;;8.60;99.90;;;;;;5014651;28;20488;-66
2021/12/10 11:56:18;;;;;;;27.33;18.00;;;8.60;99.90;;;;;;5024294;28;20030;-55
2021/12/10 11:58:44;;;;;;;29.45;18.92;;;8.90;99.90;;;;;;5016920;28;20583;-58
2021/12/10 12:01:17;;;;;;;27.42;17.00;;;9.00;99.90;;;;;;5023893;28;20040;-58
2021/12/10 12:03:44;;;;;;;23.90;15.68;;;9.20;99.90;;;;;;5020493;28;20034;-57
2021/12/10 12:06:15;;;;;;;26.15;16.38;;;9.20;99.90;;;;;;5015046;28;20033;-57
2021/12/10 12:08:41;;;;;;;23.95;14.30;;;9.20;99.90;;;;;;5017696;28;20030;-55
2021/12/10 12:11:08;;;;;;;22.63;13.85;;;9.20;99.90;;;;;;5024605;28;20028;-54
2021/12/10 12:16:13;;;;;;;29.13;17.65;;;9.30;99.90;;;;;;5016615;28;20113;-56
2021/12/10 12:18:54;;;;;;;30.33;18.58;;;9.30;99.90;;;;;;5014592;28;20037;-59
2021/12/10 12:27:05;;;;;;;28.90;18.13;;;8.50;99.90;;;;;;5019328;28;20039;-55
2021/12/10 12:29:38;;;;;;;27.88;16.92;;;8.50;99.90;;;;;;5032967;28;20033;-57
2021/12/10 12:32:15;;;;;;;23.45;15.20;;;8.70;99.90;;;;;;5032859;28;20502;-57
2021/12/10 12:34:41;;;;;;;21.58;14.00;;;8.90;99.90;;;;;;5033664;28;20147;-54
2021/12/10 12:37:10;;;;;;;19.73;13.05;;;9.00;99.90;;;;;;5034120;28;20478;-54
2021/12/10 12:39:40;;;;;;;17.52;12.55;;;9.10;99.90;;;;;;5032849;28;20033;-56
2021/12/10 12:42:37;;;;;;;18.55;11.85;;;9.10;99.90;;;;;;5033366;28;20013;-57
2021/12/10 12:45:13;;;;;;;21.08;14.23;;;9.00;99.90;;;;;;5023379;28;20052;-56
2021/12/10 12:47:42;;;;;;;28.00;16.50;;;8.90;99.90;;;;;;5031414;28;20092;-57
2021/12/10 13:07:20;;;;;;;34.38;21.42;;;8.00;99.90;;;;;;5774188;23;20078;-51
2021/12/10 13:09:53;;;;;;;29.25;18.73;;;8.00;99.90;;;;;;5013665;28;20029;-58
2021/12/10 13:12:36;;;;;;;29.83;19.67;;;8.00;99.90;;;;;;5014067;28;20022;-62
2021/12/10 13:15:14;;;;;;;36.13;22.88;;;8.10;99.90;;;;;;5014046;28;20259;-61
2021/12/10 13:17:50;;;;;;;39.28;23.00;;;8.10;99.90;;;;;;5013969;28;20026;-57
2021/12/10 13:20:20;;;;;;;35.10;21.92;;;8.10;99.90;;;;;;5012928;28;20030;-57
2021/12/10 13:22:48;;;;;;;32.00;20.77;;;8.10;99.90;;;;;;5013500;28;20029;-49
2021/12/10 13:25:18;;;;;;;38.88;24.15;;;8.00;99.90;;;;;;5012824;28;20053;-57
2021/12/10 13:27:44;;;;;;;36.67;22.85;;;8.10;99.90;;;;;;5009774;28;20079;-62
2021/12/10 13:30:19;;;;;;;41.58;23.83;;;8.00;99.90;;;;;;5011123;28;20037;-61
2021/12/10 13:32:47;;;;;;;39.65;25.35;;;7.90;99.90;;;;;;5010837;28;20077;-58
2021/12/10 13:35:15;;;;;;;49.38;30.02;;;7.80;99.90;;;;;;5012452;28;20602;-53
2021/12/10 13:37:41;;;;;;;51.72;30.60;;;7.70;99.90;;;;;;5012131;28;20381;-50
2021/12/10 13:40:08;;;;;;;53.40;31.58;;;7.70;99.90;;;;;;5011870;28;20029;-49
2021/12/10 13:42:35;;;;;;;45.15;27.58;;;7.70;99.90;;;;;;5011068;28;20026;-55
2021/12/10 13:45:03;;;;;;;44.53;27.17;;;7.80;99.90;;;;;;5012081;28;20675;-52
2021/12/10 13:47:34;;;;;;;43.80;27.20;;;7.80;99.90;;;;;;5011770;28;20432;-56
2021/12/10 13:50:14;;;;;;;37.97;24.83;;;7.80;99.90;;;;;;5012034;28;20059;-57
2021/12/10 13:53:04;;;;;;;41.63;24.90;;;7.80;99.90;;;;;;5012394;28;20066;-59
2021/12/10 13:55:44;;;;;;;44.47;27.58;;;7.90;99.90;;;;;;5012488;28;20419;-50
2021/12/10 13:58:10;;;;;;;66.20;36.88;;;8.10;99.90;;;;;;5011385;28;20037;-60
2021/12/10 14:00:39;;;;;;;57.65;34.25;;;8.10;99.90;;;;;;5011840;28;20033;-54
2021/12/10 14:03:05;;;;;;;66.13;39.33;;;8.10;99.90;;;;;;5012198;28;20022;-57
2021/12/10 14:05:39;;;;;;;59.90;37.00;;;8.10;99.90;;;;;;5011859;28;20029;-59
2021/12/10 14:08:11;;;;;;;58.97;35.17;;;8.10;99.90;;;;;;4999620;28;20055;-54
2021/12/10 14:10:41;;;;;;;61.85;34.13;;;8.20;99.90;;;;;;4993445;28;20031;-56
2021/12/10 14:13:10;;;;;;;61.70;35.25;;;8.10;99.90;;;;;;4993982;28;20030;-56
2021/12/10 14:15:52;;;;;;;92.10;49.42;;;8.10;99.90;;;;;;4993680;28;20468;-57
2021/12/10 14:18:26;;;;;;;103.25;58.03;;;8.10;99.90;;;;;;4993424;28;20361;-57
2021/12/10 14:21:21;;;;;;;79.28;46.05;;;7.80;99.90;;;;;;4993516;28;20065;-54
2021/12/10 14:23:58;;;;;;;78.55;44.80;;;7.80;99.90;;;;;;4993496;28;20077;-49
2021/12/10 14:26:28;;;;;;;69.47;41.95;;;7.90;99.90;;;;;;4993498;28;20023;-59
2021/12/10 14:29:09;;;;;;;86.25;43.38;;;8.00;99.90;;;;;;4993511;28;20026;-57
2021/12/10 14:31:42;;;;;;;63.10;36.30;;;8.10;99.90;;;;;;4993501;28;20018;-55
2021/12/10 14:34:19;;;;;;;73.53;41.80;;;8.10;99.90;;;;;;4993110;28;20022;-57
2021/12/10 14:37:02;;;;;;;89.47;45.88;;;8.10;99.90;;;;;;4993485;28;20027;-52
2021/12/10 14:39:28;;;;;;;88.95;45.40;;;8.10;99.90;;;;;;4993479;28;20096;-57
2021/12/10 14:41:55;;;;;;;73.22;38.10;;;8.00;99.90;;;;;;4993585;28;20038;-60
2021/12/10 14:44:29;;;;;;;71.50;37.22;;;7.90;99.90;;;;;;4993419;28;20102;-60
2021/12/10 14:47:19;;;;;;;130.48;61.85;;;7.90;99.90;;;;;;4996019;28;20018;-55
2021/12/10 14:50:01;;;;;;;91.90;48.17;;;8.00;99.90;;;;;;4997129;28;20476;-49
2021/12/10 14:52:39;;;;;;;80.70;41.78;;;7.90;99.90;;;;;;4997158;28;20061;-55
2021/12/10 14:55:22;;;;;;;99.25;51.78;;;7.90;99.90;;;;;;4995328;28;20105;-59
2021/12/10 14:57:54;;;;;;;169.63;83.13;;;7.80;99.90;;;;;;4994947;28;20037;-59
2021/12/10 15:00:40;;;;;;;149.18;79.65;;;7.60;99.90;;;;;;4995039;28;20045;-54
2021/12/10 15:03:26;;;;;;;146.90;84.47;;;7.40;99.90;;;;;;4994762;28;20037;-58
2021/12/10 15:05:54;;;;;;;114.20;61.47;;;7.20;99.90;;;;;;4995904;28;20097;-51
2021/12/10 15:08:49;;;;;;;105.63;57.58;;;7.10;99.90;;;;;;4996141;28;20144;-53
2021/12/10 15:11:39;;;;;;;100.65;55.03;;;7.10;99.90;;;;;;4997012;28;20233;-49
2021/12/10 15:14:26;;;;;;;144.43;73.57;;;7.20;99.90;;;;;;4996715;28;20019;-58
2021/12/10 15:17:10;;;;;;;360.30;189.27;;;7.30;99.90;;;;;;4996773;28;20031;-55
2021/12/10 15:19:56;;;;;;;410.98;246.23;;;7.10;99.90;;;;;;4996601;28;20535;-53
2021/12/10 15:22:36;;;;;;;346.50;195.98;;;6.80;99.90;;;;;;4996468;28;20041;-57
2021/12/10 15:25:08;;;;;;;238.00;131.50;;;6.40;99.90;;;;;;4996772;28;20026;-57
2021/12/10 15:27:38;;;;;;;246.93;123.72;;;6.30;99.90;;;;;;4996412;28;20022;-59
2021/12/10 15:30:11;;;;;;;305.55;151.25;;;6.10;99.90;;;;;;4996652;28;20042;-60
2021/12/10 15:33:01;;;;;;;296.80;147.77;;;6.10;99.90;;;;;;4996430;28;20035;-56
2021/12/10 15:35:41;;;;;;;257.08;119.78;;;5.70;99.90;;;;;;4996292;28;20027;-55
2021/12/10 15:38:15;;;;;;;329.33;154.93;;;5.70;99.90;;;;;;4996114;28;20035;-54
